createdAt,value
2023-02-27T00:00:25.594Z,0.00
2023-02-27T00:01:25.811Z,0.00
2023-02-27T00:02:39.122Z,0.00
2023-02-27T00:03:25.485Z,0.00
2023-02-27T00:04:25.420Z,0.00
2023-02-27T00:05:25.382Z,0.00
2023-02-27T05:10:49.627Z,0.00
2023-02-27T05:58:45.189Z,8.00
2023-02-27T05:59:45.151Z,12.00
2023-02-27T06:00:45.083Z,12.00
2023-02-27T06:01:46.380Z,16.00
2023-02-27T06:02:44.974Z,20.00
2023-02-27T06:03:44.952Z,28.00
2023-02-27T06:04:44.887Z,28.00
2023-02-27T06:05:44.835Z,36.00
2023-02-27T06:06:44.778Z,44.00
2023-02-27T06:07:44.732Z,48.00
2023-02-27T06:08:44.699Z,56.00
2023-02-27T06:09:44.704Z,64.00
2023-02-27T06:10:44.584Z,76.00
2023-02-27T06:11:44.544Z,88.00
2023-02-27T06:12:44.512Z,96.00
2023-02-27T06:13:44.440Z,112.00
2023-02-27T06:14:44.404Z,124.00
2023-02-27T06:15:44.342Z,140.00
2023-02-27T06:16:44.364Z,160.00
2023-02-27T06:17:44.245Z,176.00
2023-02-27T06:18:44.195Z,196.00
2023-02-27T06:19:44.172Z,216.00
2023-02-27T06:20:44.129Z,240.00
2023-02-27T06:21:44.079Z,260.00
2023-02-27T06:22:44.010Z,284.00
2023-02-27T06:23:43.958Z,312.00
2023-02-27T06:24:43.900Z,340.00
2023-02-27T06:25:43.861Z,364.00
2023-02-27T06:26:43.839Z,396.00
2023-02-27T06:27:43.771Z,428.00
2023-02-27T06:28:43.771Z,460.00
2023-02-27T06:29:43.667Z,492.00
2023-02-27T06:30:45.334Z,524.00
2023-02-27T06:31:43.617Z,564.00
2023-02-27T06:32:43.522Z,596.00
2023-02-27T06:33:43.474Z,632.00
2023-02-27T06:34:43.417Z,668.00
2023-02-27T06:35:43.414Z,708.00
2023-02-27T06:36:43.326Z,744.00
2023-02-27T06:37:43.288Z,784.00
2023-02-27T06:38:43.226Z,824.00
2023-02-27T06:39:43.182Z,860.00
2023-02-27T06:40:43.125Z,904.00
2023-02-27T06:41:43.104Z,940.00
2023-02-27T06:42:43.049Z,980.00
2023-02-27T06:43:42.985Z,1024.00
2023-02-27T06:44:42.940Z,1060.00
2023-02-27T06:45:42.893Z,1100.00
2023-02-27T06:46:42.843Z,1140.00
2023-02-27T06:47:42.805Z,1180.00
2023-02-27T06:48:42.776Z,1220.00
2023-02-27T06:49:42.698Z,1260.00
2023-02-27T06:50:42.683Z,1300.00
2023-02-27T06:51:44.911Z,1340.00
2023-02-27T06:52:42.568Z,1384.00
2023-02-27T06:53:42.521Z,1424.00
2023-02-27T06:54:42.459Z,1520.00
2023-02-27T06:55:42.414Z,1692.00
2023-02-27T06:56:42.362Z,1928.00
2023-02-27T06:57:42.321Z,2328.00
2023-02-27T06:58:42.277Z,3428.00
2023-02-27T06:59:42.224Z,5296.00
2023-02-27T07:00:42.167Z,6204.00
2023-02-27T07:01:42.185Z,6448.00
2023-02-27T07:02:42.072Z,6692.00
2023-02-27T07:03:42.024Z,6932.00
2023-02-27T07:04:42.017Z,7164.00
2023-02-27T07:05:41.959Z,7392.00
2023-02-27T07:07:36.367Z,7612.00
2023-02-27T07:07:41.847Z,7848.00
2023-02-27T07:09:01.476Z,8076.00
2023-02-27T07:09:41.746Z,8300.00
2023-02-27T07:10:41.697Z,8504.00
2023-02-27T07:11:41.663Z,8736.00
2023-02-27T07:12:41.620Z,8976.00
2023-02-27T07:13:41.563Z,9192.00
2023-02-27T07:14:41.511Z,9444.00
2023-02-27T07:15:41.506Z,9596.00
2023-02-27T07:16:41.423Z,9780.00
2023-02-27T07:17:41.403Z,9944.00
2023-02-27T07:18:41.331Z,10120.00
2023-02-27T07:19:41.289Z,10152.00
2023-02-27T07:20:41.242Z,10304.00
2023-02-27T07:21:41.200Z,10572.00
2023-02-27T07:22:41.153Z,10744.00
2023-02-27T07:23:41.120Z,10860.00
2023-02-27T07:24:41.076Z,11028.00
2023-02-27T07:25:41.028Z,11124.00
2023-02-27T07:26:40.982Z,11244.00
2023-02-27T07:27:40.937Z,11364.00
2023-02-27T07:28:40.962Z,11156.00
2023-02-27T07:29:40.855Z,11432.00
2023-02-27T07:30:40.833Z,11424.00
2023-02-27T07:31:40.764Z,11916.00
2023-02-27T07:32:40.714Z,12096.00
2023-02-27T07:33:40.683Z,12176.00
2023-02-27T07:34:40.646Z,12308.00
2023-02-27T07:35:40.621Z,12496.00
2023-02-27T07:36:40.558Z,12616.00
2023-02-27T07:37:40.510Z,12752.00
2023-02-27T07:38:40.467Z,12920.00
2023-02-27T07:39:40.437Z,13040.00
2023-02-27T07:40:40.383Z,13188.00
2023-02-27T07:41:40.351Z,13248.00
2023-02-27T07:42:40.322Z,13396.00
2023-02-27T07:43:40.264Z,13484.00
2023-02-27T07:44:40.220Z,13596.00
2023-02-27T07:45:40.183Z,13672.00
2023-02-27T07:46:40.261Z,13776.00
2023-02-27T07:47:40.102Z,13852.00
2023-02-27T07:48:40.066Z,13940.00
2023-02-27T07:49:40.016Z,13964.00
2023-02-27T07:50:40.017Z,14076.00
2023-02-27T07:51:39.943Z,14140.00
2023-02-27T07:52:39.899Z,13236.00
2023-02-27T07:53:39.874Z,13312.00
2023-02-27T07:54:39.822Z,13348.00
2023-02-27T07:55:39.797Z,13500.00
2023-02-27T07:56:39.736Z,13500.00
2023-02-27T07:57:39.694Z,13512.00
2023-02-27T07:58:39.662Z,13652.00
2023-02-27T07:59:39.617Z,13756.00
2023-02-27T08:00:39.576Z,13768.00
2023-02-27T08:01:39.566Z,13848.00
2023-02-27T08:02:39.553Z,13856.00
2023-02-27T08:03:39.482Z,13984.00
2023-02-27T08:04:39.459Z,14008.00
2023-02-27T08:05:39.409Z,14024.00
2023-02-27T08:06:39.342Z,14072.00
2023-02-27T08:07:39.318Z,14184.00
2023-02-27T08:08:39.266Z,14200.00
2023-02-27T08:09:39.241Z,14264.00
2023-02-27T08:10:39.184Z,14280.00
2023-02-27T08:11:39.171Z,14328.00
2023-02-27T08:12:39.095Z,14400.00
2023-02-27T08:14:39.041Z,14524.00
2023-02-27T08:15:38.993Z,14640.00
2023-02-27T08:16:39.036Z,14688.00
2023-02-27T08:17:38.908Z,14668.00
2023-02-27T08:18:38.869Z,14812.00
2023-02-27T08:19:38.835Z,14856.00
2023-02-27T08:20:38.800Z,14924.00
2023-02-27T08:21:38.757Z,14976.00
2023-02-27T08:22:38.732Z,15076.00
2023-02-27T08:23:38.675Z,15000.00
2023-02-27T08:24:38.652Z,15172.00
2023-02-27T08:25:38.629Z,15392.00
2023-02-27T08:26:38.581Z,15176.00
2023-02-27T08:27:38.543Z,15520.00
2023-02-27T08:28:38.530Z,15488.00
2023-02-27T08:29:42.341Z,15552.00
2023-02-27T08:30:38.414Z,15584.00
2023-02-27T08:31:38.733Z,15648.00
2023-02-27T08:32:38.320Z,15712.00
2023-02-27T08:33:39.002Z,15776.00
2023-02-27T08:34:45.714Z,15776.00
2023-02-27T08:37:09.879Z,15968.00
2023-02-27T08:38:09.823Z,15968.00
2023-02-27T08:39:09.840Z,15968.00
2023-02-27T08:40:09.764Z,16032.00
2023-02-27T08:41:09.724Z,16096.00
2023-02-27T08:42:09.670Z,16128.00
2023-02-27T08:44:56.041Z,16224.00
2023-02-27T08:45:56.018Z,16288.00
2023-02-27T08:46:55.940Z,16256.00
2023-02-27T08:47:55.897Z,16320.00
2023-02-27T08:48:55.979Z,16416.00
2023-02-27T08:49:55.827Z,16384.00
2023-02-27T08:50:57.831Z,16288.00
2023-02-27T08:51:55.767Z,16384.00
2023-02-27T08:52:55.707Z,16512.00
2023-02-27T08:53:55.672Z,16416.00
2023-02-27T08:54:55.639Z,16480.00
2023-02-27T08:55:55.596Z,16384.00
2023-02-27T08:56:55.579Z,16544.00
2023-02-27T08:57:55.525Z,16480.00
2023-02-27T08:58:55.490Z,16448.00
2023-02-27T08:59:55.461Z,16544.00
2023-02-27T09:00:55.433Z,16544.00
2023-02-27T09:01:55.370Z,16576.00
2023-02-27T09:02:55.370Z,16544.00
2023-02-27T09:03:55.300Z,16576.00
2023-02-27T09:04:55.275Z,16608.00
2023-02-27T09:05:55.221Z,16608.00
2023-02-27T09:06:55.190Z,16608.00
2023-02-27T09:07:55.155Z,16704.00
2023-02-27T09:08:55.115Z,16608.00
2023-02-27T09:09:55.097Z,16640.00
2023-02-27T09:10:55.052Z,16576.00
2023-02-27T09:11:55.015Z,16672.00
2023-02-27T09:12:54.972Z,16672.00
2023-02-27T09:13:54.944Z,16704.00
2023-02-27T09:14:54.903Z,16704.00
2023-02-27T09:15:54.858Z,16736.00
2023-02-27T09:16:54.887Z,16672.00
2023-02-27T09:17:54.776Z,16640.00
2023-02-27T09:18:54.741Z,16704.00
2023-02-27T09:19:57.248Z,16800.00
2023-02-27T09:20:54.665Z,16608.00
2023-02-27T09:21:54.664Z,16768.00
2023-02-27T09:22:54.599Z,16736.00
2023-02-27T09:23:54.580Z,16640.00
2023-02-27T09:24:54.637Z,16800.00
2023-02-27T09:25:54.472Z,16864.00
2023-02-27T09:26:54.476Z,16800.00
2023-02-27T09:27:54.396Z,16864.00
2023-02-27T09:28:54.365Z,16928.00
2023-02-27T09:29:54.328Z,16832.00
2023-02-27T09:30:54.296Z,16736.00
2023-02-27T09:31:54.328Z,16832.00
2023-02-27T09:32:54.315Z,16928.00
2023-02-27T09:33:54.186Z,16992.00
2023-02-27T09:34:54.160Z,17152.00
2023-02-27T09:35:54.100Z,16896.00
2023-02-27T09:36:54.074Z,17088.00
2023-02-27T09:37:54.024Z,16992.00
2023-02-27T09:38:54.005Z,16896.00
2023-02-27T09:39:53.954Z,17184.00
2023-02-27T09:40:53.907Z,16896.00
2023-02-27T09:41:53.873Z,17024.00
2023-02-27T09:42:53.887Z,17152.00
2023-02-27T09:43:53.800Z,17376.00
2023-02-27T09:44:53.770Z,17408.00
2023-02-27T09:45:53.767Z,17440.00
2023-02-27T09:46:53.702Z,17664.00
2023-02-27T09:47:53.666Z,17632.00
2023-02-27T09:48:53.607Z,17600.00
2023-02-27T09:49:53.587Z,17760.00
2023-02-27T09:50:53.544Z,18080.00
2023-02-27T09:51:53.590Z,18272.00
2023-02-27T09:52:53.469Z,5304.00
2023-02-27T09:53:53.426Z,17888.00
2023-02-27T09:54:53.388Z,17824.00
2023-02-27T09:55:53.344Z,17568.00
2023-02-27T09:56:53.327Z,17920.00
2023-02-27T09:57:53.271Z,17984.00
2023-02-27T09:58:53.241Z,18240.00
2023-02-27T09:59:53.200Z,18272.00
2023-02-27T10:00:53.166Z,18464.00
2023-02-27T10:01:53.130Z,18368.00
2023-02-27T10:02:53.175Z,18240.00
2023-02-27T10:03:53.055Z,8264.00
2023-02-27T10:04:53.053Z,17792.00
2023-02-27T10:05:52.978Z,17120.00
2023-02-27T10:06:52.976Z,16864.00
2023-02-27T10:07:52.939Z,16512.00
2023-02-27T10:08:52.872Z,16384.00
2023-02-27T10:09:52.845Z,16352.00
2023-02-27T10:10:52.809Z,16448.00
2023-02-27T10:11:52.768Z,16608.00
2023-02-27T10:12:52.734Z,16576.00
2023-02-27T10:13:52.703Z,16736.00
2023-02-27T10:14:52.670Z,16352.00
2023-02-27T10:15:52.619Z,16320.00
2023-02-27T10:16:52.636Z,16036.00
2023-02-27T10:17:52.572Z,16384.00
2023-02-27T10:18:52.524Z,16384.00
2023-02-27T10:19:52.489Z,16512.00
2023-02-27T10:20:52.440Z,16352.00
2023-02-27T10:21:52.443Z,16000.00
2023-02-27T10:22:52.380Z,15160.00
2023-02-27T10:23:52.331Z,15660.00
2023-02-27T10:24:52.302Z,15544.00
2023-02-27T10:25:52.265Z,15540.00
2023-02-27T10:26:52.224Z,14044.00
2023-02-27T10:27:52.186Z,15700.00
2023-02-27T10:28:52.159Z,15684.00
2023-02-27T10:29:52.133Z,15740.00
2023-02-27T10:30:52.119Z,15760.00
2023-02-27T10:31:52.069Z,10956.00
2023-02-27T10:32:52.001Z,15844.00
2023-02-27T10:33:51.984Z,7752.00
2023-02-27T10:34:51.931Z,15572.00
2023-02-27T10:35:51.983Z,11988.00
2023-02-27T10:36:51.865Z,15432.00
2023-02-27T10:37:51.830Z,15228.00
2023-02-27T10:38:51.784Z,15644.00
2023-02-27T10:39:51.762Z,15960.00
2023-02-27T10:40:51.708Z,6624.00
2023-02-27T10:50:10.739Z,15464.00
2023-02-27T10:51:10.673Z,5528.00
2023-02-27T10:52:10.661Z,9080.00
2023-02-27T10:53:10.627Z,4828.00
2023-02-27T10:54:10.557Z,4936.00
2023-02-27T10:55:10.512Z,4628.00
2023-02-27T10:56:10.468Z,15604.00
2023-02-27T10:57:10.424Z,4848.00
2023-02-27T10:58:10.390Z,15480.00
2023-02-27T10:59:10.342Z,5356.00
2023-02-27T11:00:10.329Z,10652.00
2023-02-27T11:01:10.346Z,5124.00
2023-02-27T11:02:10.214Z,8664.00
2023-02-27T11:03:10.186Z,4800.00
2023-02-27T11:04:10.168Z,5140.00
2023-02-27T11:05:10.115Z,4856.00
2023-02-27T11:06:10.055Z,5180.00
2023-02-27T11:07:10.021Z,5512.00
2023-02-27T11:08:09.970Z,9892.00
2023-02-27T11:09:09.940Z,5124.00
2023-02-27T11:10:09.889Z,4808.00
2023-02-27T11:11:09.860Z,4632.00
2023-02-27T11:12:09.816Z,4832.00
2023-02-27T11:13:09.763Z,4872.00
2023-02-27T11:14:09.727Z,5276.00
2023-02-27T11:15:09.686Z,5596.00
2023-02-27T11:16:09.707Z,12448.00
2023-02-27T11:17:09.605Z,5384.00
2023-02-27T11:18:09.568Z,5688.00
2023-02-27T11:19:09.522Z,5784.00
2023-02-27T11:20:09.473Z,6920.00
2023-02-27T11:21:09.434Z,14560.00
2023-02-27T11:22:09.404Z,4980.00
2023-02-27T11:23:09.353Z,5696.00
2023-02-27T11:24:09.315Z,4908.00
2023-02-27T11:25:09.270Z,4932.00
2023-02-27T11:26:09.229Z,4424.00
2023-02-27T11:27:09.206Z,6196.00
2023-02-27T11:28:09.160Z,13808.00
2023-02-27T11:29:09.116Z,13984.00
2023-02-27T11:30:09.132Z,13592.00
2023-02-27T11:31:09.042Z,4672.00
2023-02-27T11:32:08.986Z,4516.00
2023-02-27T11:33:08.941Z,5328.00
2023-02-27T11:34:08.910Z,4924.00
2023-02-27T11:35:08.863Z,5640.00
2023-02-27T11:36:08.830Z,14216.00
2023-02-27T11:37:08.788Z,13672.00
2023-02-27T11:38:08.731Z,13664.00
2023-02-27T11:39:08.728Z,4316.00
2023-02-27T11:40:08.648Z,9844.00
2023-02-27T11:41:08.617Z,5652.00
2023-02-27T11:42:08.564Z,6156.00
2023-02-27T11:43:08.532Z,13680.00
2023-02-27T11:44:08.491Z,13524.00
2023-02-27T11:45:08.481Z,13612.00
2023-02-27T11:46:33.236Z,13812.00
2023-02-27T11:47:08.381Z,4560.00
2023-02-27T11:48:08.323Z,9768.00
2023-02-27T11:49:08.309Z,13280.00
2023-02-27T11:50:08.236Z,7984.00
2023-02-27T11:51:08.225Z,9124.00
2023-02-27T11:52:08.171Z,12956.00
2023-02-27T11:53:08.125Z,12996.00
2023-02-27T11:54:08.081Z,11012.00
2023-02-27T11:55:08.052Z,5244.00
2023-02-27T11:56:08.022Z,12080.00
2023-02-27T11:57:08.831Z,13708.00
2023-02-27T11:58:07.914Z,8756.00
2023-02-27T11:59:18.049Z,8992.00
2023-02-27T12:00:15.379Z,4324.00
2023-02-27T12:01:19.384Z,4420.00
2023-02-27T12:02:11.375Z,13132.00
2023-02-27T12:03:41.409Z,13080.00
2023-02-27T12:05:34.399Z,3860.00
2023-02-27T12:06:18.034Z,13196.00
2023-02-27T12:07:36.895Z,9172.00
2023-02-27T12:08:11.395Z,13168.00
2023-02-27T12:09:17.880Z,6828.00
2023-02-27T12:11:43.612Z,13044.00
2023-02-27T12:12:47.061Z,3700.00
2023-02-27T12:13:47.588Z,5396.00
2023-02-27T12:15:07.066Z,3624.00
2023-02-27T12:17:13.999Z,10700.00
2023-02-27T12:18:13.893Z,12844.00
2023-02-27T12:19:13.774Z,12872.00
2023-02-27T12:20:26.001Z,12656.00
2023-02-27T12:21:18.441Z,12692.00
2023-02-27T12:22:15.760Z,12656.00
2023-02-27T12:23:36.995Z,12564.00
2023-02-27T12:24:17.448Z,12144.00
2023-02-27T12:25:33.947Z,12304.00
2023-02-27T12:26:18.000Z,12224.00
2023-02-27T12:27:16.443Z,12224.00
2023-02-27T12:28:17.488Z,12368.00
2023-02-27T12:31:54.266Z,12764.00
2023-02-27T12:32:54.632Z,12932.00
2023-02-27T12:33:54.158Z,13072.00
2023-02-27T12:34:56.649Z,13040.00
2023-02-27T12:36:02.251Z,12884.00
2023-02-27T12:36:54.166Z,12344.00
2023-02-27T12:37:53.802Z,12500.00
2023-02-27T12:38:53.810Z,12188.00
2023-02-27T12:39:53.950Z,11724.00
2023-02-27T12:40:53.805Z,11396.00
2023-02-27T12:41:53.022Z,10776.00
2023-02-27T12:42:53.595Z,10020.00
2023-02-27T12:43:53.673Z,8976.00
2023-02-27T12:44:53.793Z,7036.00
2023-02-27T12:45:53.464Z,5144.00
2023-02-27T12:46:53.833Z,4256.00
2023-02-27T12:47:53.653Z,3892.00
2023-02-27T12:48:53.945Z,3660.00
2023-02-27T12:49:53.387Z,3624.00
2023-02-27T12:50:54.144Z,3764.00
2023-02-27T12:51:53.162Z,3848.00
2023-02-27T12:52:53.329Z,3816.00
2023-02-27T12:53:53.268Z,3884.00
2023-02-27T12:54:53.912Z,3864.00
2023-02-27T12:55:53.787Z,3680.00
2023-02-27T12:56:53.071Z,3672.00
2023-02-27T12:57:56.672Z,3544.00
2023-02-27T12:58:52.529Z,3416.00
2023-02-27T12:59:52.976Z,3340.00
2023-02-27T13:00:53.027Z,3328.00
2023-02-27T13:01:52.911Z,3316.00
2023-02-27T13:02:53.150Z,3308.00
2023-02-27T13:03:52.814Z,3312.00
2023-02-27T13:04:52.848Z,3308.00
2023-02-27T13:05:52.580Z,3312.00
2023-02-27T13:06:52.815Z,3308.00
2023-02-27T13:07:52.402Z,3356.00
2023-02-27T13:08:52.623Z,3412.00
2023-02-27T13:09:52.526Z,3420.00
2023-02-27T13:10:52.517Z,3380.00
2023-02-27T13:11:52.785Z,3252.00
2023-02-27T13:12:52.607Z,3224.00
2023-02-27T13:13:52.455Z,3240.00
2023-02-27T13:14:52.516Z,3228.00
2023-02-27T13:15:52.361Z,3220.00
2023-02-27T13:16:52.393Z,3216.00
2023-02-27T13:17:51.801Z,3208.00
2023-02-27T13:18:52.189Z,3208.00
2023-02-27T13:19:52.151Z,3196.00
2023-02-27T13:20:52.158Z,3184.00
2023-02-27T13:21:52.105Z,3168.00
2023-02-27T13:22:52.848Z,3156.00
2023-02-27T13:23:51.969Z,3148.00
2023-02-27T13:24:51.997Z,3140.00
2023-02-27T13:25:52.102Z,3128.00
2023-02-27T13:26:51.585Z,3136.00
2023-02-27T13:27:52.026Z,3144.00
2023-02-27T13:28:56.138Z,3164.00
2023-02-27T13:30:13.518Z,3168.00
2023-02-27T13:30:51.862Z,3164.00
2023-02-27T13:31:52.307Z,3156.00
2023-02-27T13:32:52.486Z,3152.00
2023-02-27T13:33:51.659Z,3168.00
2023-02-27T13:34:51.244Z,3172.00
2023-02-27T13:35:51.640Z,3176.00
2023-02-27T13:36:54.751Z,3180.00
2023-02-27T13:37:53.205Z,3200.00
2023-02-27T13:38:57.229Z,3216.00
2023-02-27T13:39:54.352Z,3228.00
2023-02-27T13:40:54.184Z,3256.00
2023-02-27T13:41:52.181Z,3268.00
2023-02-27T13:42:51.254Z,3268.00
2023-02-27T13:43:52.808Z,3240.00
2023-02-27T13:44:50.930Z,3248.00
2023-02-27T13:45:51.079Z,3252.00
2023-02-27T13:46:51.087Z,3232.00
2023-02-27T13:47:50.737Z,3296.00
2023-02-27T13:48:50.764Z,3372.00
2023-02-27T13:49:50.888Z,3464.00
2023-02-27T13:50:50.827Z,3512.00
2023-02-27T13:51:50.793Z,3488.00
2023-02-27T13:52:50.297Z,3284.00
2023-02-27T13:53:50.811Z,3420.00
2023-02-27T13:54:51.911Z,3552.00
2023-02-27T13:55:50.766Z,3492.00
2023-02-27T13:56:50.672Z,3436.00
2023-02-27T13:57:50.629Z,3704.00
2023-02-27T13:58:50.128Z,3844.00
2023-02-27T13:59:50.527Z,4180.00
2023-02-27T14:00:50.469Z,4312.00
2023-02-27T14:01:50.336Z,4136.00
2023-02-27T14:02:58.736Z,3992.00
2023-02-27T14:03:50.301Z,3684.00
2023-02-27T14:04:50.408Z,3404.00
2023-02-27T14:05:50.100Z,3416.00
2023-02-27T14:06:50.369Z,3428.00
2023-02-27T14:07:50.223Z,3428.00
2023-02-27T14:08:50.378Z,3380.00
2023-02-27T14:09:49.974Z,3308.00
2023-02-27T14:10:50.229Z,3256.00
2023-02-27T14:11:49.488Z,3312.00
2023-02-27T14:12:50.264Z,3332.00
2023-02-27T14:13:50.726Z,3436.00
2023-02-27T14:14:49.323Z,3500.00
2023-02-27T14:15:49.735Z,3712.00
2023-02-27T14:16:50.789Z,3824.00
2023-02-27T14:17:52.385Z,3972.00
2023-02-27T14:18:49.276Z,4104.00
2023-02-27T14:19:49.480Z,4008.00
2023-02-27T14:20:49.419Z,3776.00
2023-02-27T14:21:49.346Z,3568.00
2023-02-27T14:22:49.457Z,3264.00
2023-02-27T14:23:49.145Z,3044.00
2023-02-27T14:25:01.536Z,2928.00
2023-02-27T14:25:49.014Z,2876.00
2023-02-27T14:26:48.432Z,2916.00
2023-02-27T14:27:48.345Z,2992.00
2023-02-27T14:28:48.236Z,2996.00
2023-02-27T14:29:48.212Z,3016.00
2023-02-27T14:30:49.112Z,3040.00
2023-02-27T14:31:49.140Z,3108.00
2023-02-27T14:32:48.074Z,3184.00
2023-02-27T14:33:48.742Z,3260.00
2023-02-27T14:34:48.600Z,3364.00
2023-02-27T14:35:48.830Z,3652.00
2023-02-27T14:36:48.916Z,4108.00
2023-02-27T14:37:48.733Z,4552.00
2023-02-27T14:38:48.788Z,4748.00
2023-02-27T14:39:48.578Z,4660.00
2023-02-27T14:40:48.569Z,4552.00
2023-02-27T14:41:47.679Z,4764.00
2023-02-27T14:42:48.616Z,4904.00
2023-02-27T14:43:48.479Z,4624.00
2023-02-27T14:44:48.458Z,4264.00
2023-02-27T14:45:48.436Z,4124.00
2023-02-27T14:46:48.333Z,3948.00
2023-02-27T14:47:48.308Z,3984.00
2023-02-27T14:48:48.241Z,4084.00
2023-02-27T14:49:48.359Z,4048.00
2023-02-27T14:50:48.108Z,3796.00
2023-02-27T14:51:47.247Z,3464.00
2023-02-27T14:52:48.222Z,3376.00
2023-02-27T14:53:50.092Z,3536.00
2023-02-27T14:54:47.913Z,3528.00
2023-02-27T14:55:47.843Z,3672.00
2023-02-27T14:56:47.809Z,3824.00
2023-02-27T14:57:47.869Z,3484.00
2023-02-27T14:58:52.360Z,3456.00
2023-02-27T14:59:47.714Z,3792.00
2023-02-27T15:00:47.702Z,3620.00
2023-02-27T15:01:47.809Z,3352.00
2023-02-27T15:02:47.787Z,3216.00
2023-02-27T15:03:47.948Z,3376.00
2023-02-27T15:04:47.634Z,3540.00
2023-02-27T15:05:46.662Z,3784.00
2023-02-27T15:06:46.574Z,3908.00
2023-02-27T15:07:46.541Z,3856.00
2023-02-27T15:08:46.522Z,3760.00
2023-02-27T15:09:46.473Z,3736.00
2023-02-27T15:10:46.404Z,3576.00
2023-02-27T15:11:57.542Z,3720.00
2023-02-27T15:12:46.344Z,4032.00
2023-02-27T15:13:46.302Z,4400.00
2023-02-27T15:14:46.247Z,4328.00
2023-02-27T15:15:46.230Z,3868.00
2023-02-27T15:16:46.206Z,3560.00
2023-02-27T15:17:46.121Z,3320.00
2023-02-27T15:18:46.071Z,3244.00
2023-02-27T15:19:46.030Z,2852.00
2023-02-27T15:20:45.983Z,2656.00
2023-02-27T15:21:45.958Z,2524.00
2023-02-27T15:22:45.882Z,2344.00
2023-02-27T15:23:45.843Z,2280.00
2023-02-27T15:24:50.363Z,2264.00
2023-02-27T15:25:45.769Z,2320.00
2023-02-27T15:26:45.729Z,2240.00
2023-02-27T15:27:45.670Z,2252.00
2023-02-27T15:28:45.658Z,2292.00
2023-02-27T15:29:45.595Z,2368.00
2023-02-27T15:30:45.538Z,2376.00
2023-02-27T15:31:45.540Z,2388.00
2023-02-27T15:32:45.491Z,2396.00
2023-02-27T15:33:45.422Z,2408.00
2023-02-27T15:34:45.366Z,2420.00
2023-02-27T15:35:45.362Z,2432.00
2023-02-27T15:36:45.293Z,2412.00
2023-02-27T15:37:45.241Z,2396.00
2023-02-27T15:38:45.211Z,2392.00
2023-02-27T15:39:47.003Z,2396.00
2023-02-27T15:40:45.109Z,2408.00
2023-02-27T15:41:45.061Z,2432.00
2023-02-27T15:42:45.025Z,2448.00
2023-02-27T15:43:44.981Z,2440.00
2023-02-27T15:44:44.937Z,2380.00
2023-02-27T15:45:44.882Z,2332.00
2023-02-27T15:46:44.886Z,2288.00
2023-02-27T15:47:44.806Z,2252.00
2023-02-27T15:48:44.774Z,2220.00
2023-02-27T15:49:44.708Z,2188.00
2023-02-27T15:50:44.687Z,2164.00
2023-02-27T15:51:44.619Z,2144.00
2023-02-27T15:52:44.590Z,2120.00
2023-02-27T15:53:44.536Z,2104.00
2023-02-27T15:54:44.482Z,2084.00
2023-02-27T15:55:44.456Z,2060.00
2023-02-27T15:56:44.411Z,2048.00
2023-02-27T15:57:56.573Z,2032.00
2023-02-27T15:58:44.370Z,2020.00
2023-02-27T15:59:44.265Z,2000.00
2023-02-27T16:00:44.260Z,1984.00
2023-02-27T16:01:44.222Z,1968.00
2023-02-27T16:02:44.217Z,1948.00
2023-02-27T16:03:44.094Z,1940.00
2023-02-27T16:04:44.039Z,1924.00
2023-02-27T16:05:44.056Z,1900.00
2023-02-27T16:06:44.009Z,1880.00
2023-02-27T16:07:43.919Z,1856.00
2023-02-27T16:08:43.862Z,1848.00
2023-02-27T16:09:43.832Z,1820.00
2023-02-27T16:10:43.807Z,1792.00
2023-02-27T16:11:43.730Z,1772.00
2023-02-27T16:12:43.717Z,1764.00
2023-02-27T16:13:43.660Z,1764.00
2023-02-27T16:14:43.676Z,1780.00
2023-02-27T16:15:43.561Z,1804.00
2023-02-27T16:16:43.633Z,1800.00
2023-02-27T16:17:49.221Z,1660.00
2023-02-27T16:18:45.509Z,1620.00
2023-02-27T16:19:43.391Z,1608.00
2023-02-27T16:20:43.336Z,1608.00
2023-02-27T16:21:43.307Z,1620.00
2023-02-27T16:22:43.258Z,1676.00
2023-02-27T16:23:43.248Z,1760.00
2023-02-27T16:24:43.177Z,1848.00
2023-02-27T16:25:43.165Z,1760.00
2023-02-27T16:26:43.081Z,1476.00
2023-02-27T16:27:43.043Z,1376.00
2023-02-27T16:28:43.009Z,1336.00
2023-02-27T16:29:42.996Z,1308.00
2023-02-27T16:30:42.923Z,1288.00
2023-02-27T16:31:42.881Z,1260.00
2023-02-27T16:32:42.870Z,1244.00
2023-02-27T16:33:42.834Z,1212.00
2023-02-27T16:34:46.431Z,1176.00
2023-02-27T16:35:42.729Z,1140.00
2023-02-27T16:36:42.639Z,1108.00
2023-02-27T16:37:42.592Z,1072.00
2023-02-27T16:38:42.553Z,1044.00
2023-02-27T16:39:42.502Z,1012.00
2023-02-27T16:40:42.572Z,984.00
2023-02-27T16:41:42.425Z,952.00
2023-02-27T16:42:42.390Z,920.00
2023-02-27T16:43:42.328Z,892.00
2023-02-27T16:44:42.298Z,860.00
2023-02-27T16:45:42.251Z,832.00
2023-02-27T16:46:42.226Z,804.00
2023-02-27T16:47:42.168Z,772.00
2023-02-27T16:48:42.107Z,740.00
2023-02-27T16:49:42.104Z,708.00
2023-02-27T16:50:42.033Z,672.00
2023-02-27T16:51:41.974Z,644.00
2023-02-27T16:52:41.961Z,612.00
2023-02-27T16:53:41.938Z,584.00
2023-02-27T16:54:42.159Z,548.00
2023-02-27T16:55:41.824Z,516.00
2023-02-27T16:56:42.032Z,488.00
2023-02-27T16:57:41.720Z,456.00
2023-02-27T16:58:41.681Z,424.00
2023-02-27T16:59:41.654Z,396.00
2023-02-27T17:00:41.582Z,368.00
2023-02-27T17:01:41.523Z,344.00
2023-02-27T17:02:41.534Z,320.00
2023-02-27T17:03:41.472Z,292.00
2023-02-27T17:04:41.443Z,272.00
2023-02-27T17:05:41.364Z,252.00
2023-02-27T17:06:41.328Z,232.00
2023-02-27T17:07:41.293Z,212.00
2023-02-27T17:08:41.293Z,192.00
2023-02-27T17:09:41.188Z,172.00
2023-02-27T17:10:41.146Z,156.00
2023-02-27T17:11:41.099Z,136.00
2023-02-27T17:12:42.992Z,124.00
2023-02-27T17:13:40.999Z,112.00
2023-02-27T17:14:40.972Z,100.00
2023-02-27T17:15:40.912Z,84.00
2023-02-27T17:16:40.909Z,76.00
2023-02-27T17:17:40.836Z,68.00
2023-02-27T17:18:40.785Z,56.00
2023-02-27T17:19:40.815Z,48.00
2023-02-27T17:20:40.703Z,40.00
2023-02-27T17:21:40.639Z,32.00
2023-02-27T17:22:40.608Z,32.00
2023-02-27T17:23:40.572Z,24.00
2023-02-27T17:24:40.526Z,24.00
2023-02-27T17:25:40.488Z,20.00
2023-02-27T17:26:40.443Z,16.00
2023-02-27T17:27:40.388Z,12.00
2023-02-27T17:28:40.364Z,12.00
2023-02-27T17:29:40.283Z,8.00
2023-02-27T17:30:40.271Z,4.00
2023-02-27T17:31:40.190Z,4.00
2023-02-27T17:32:40.151Z,4.00
2023-02-27T17:33:40.121Z,4.00
2023-02-27T17:34:40.057Z,4.00
2023-02-27T17:35:40.027Z,4.00
2023-02-27T17:36:39.997Z,0.00
2023-02-27T17:37:39.934Z,0.00
2023-02-27T17:38:39.907Z,4.00
2023-02-27T17:39:39.909Z,0.00
2023-02-27T17:40:39.812Z,0.00
2023-02-27T17:41:39.763Z,0.00
2023-02-27T17:42:39.708Z,0.00
2023-02-27T17:43:39.673Z,0.00
2023-02-27T17:44:39.648Z,0.00
2023-02-27T17:45:39.577Z,0.00
2023-02-27T17:46:39.549Z,0.00
2023-02-27T17:47:39.530Z,0.00
2023-02-27T17:48:39.457Z,0.00
2023-02-27T17:49:39.408Z,0.00
2023-02-27T17:50:39.373Z,0.00
2023-02-27T17:51:39.310Z,0.00
2023-02-27T17:52:39.265Z,0.00
2023-02-27T17:53:39.207Z,0.00
2023-02-27T17:54:39.205Z,0.00
2023-02-27T17:55:40.184Z,0.00
2023-02-27T17:56:39.075Z,0.00
2023-02-27T17:57:39.035Z,0.00
2023-02-27T17:58:38.994Z,0.00
2023-02-27T17:59:38.938Z,0.00
2023-02-27T18:00:38.908Z,0.00
2023-02-27T18:01:38.915Z,0.00
2023-02-27T18:02:38.908Z,0.00
2023-02-27T18:03:38.779Z,0.00
2023-02-27T18:04:38.717Z,0.00
2023-02-27T18:05:38.665Z,0.00
2023-02-27T18:06:38.616Z,0.00
2023-02-27T18:07:38.605Z,0.00
2023-02-27T18:08:38.553Z,0.00
2023-02-27T18:09:38.482Z,0.00
2023-02-27T18:10:39.300Z,0.00
2023-02-27T18:11:38.440Z,0.00
2023-02-27T18:12:39.600Z,0.00
2023-02-27T18:13:38.421Z,0.00
2023-02-27T18:14:39.392Z,0.00
2023-02-27T18:15:43.758Z,0.00
2023-02-27T18:17:02.742Z,0.00
2023-02-27T18:17:39.504Z,0.00